createdAt,value
2018-12-05T00:02:20.116Z,30.63
2018-12-05T00:04:49.215Z,33.53
2018-12-05T00:07:18.650Z,24.63
2018-12-05T00:09:47.451Z,31.50
2018-12-05T00:12:16.259Z,25.27
2018-12-05T00:14:45.832Z,24.27
2018-12-05T00:17:14.623Z,24.60
2018-12-05T00:19:43.520Z,23.97
2018-12-05T00:22:12.372Z,19.70
2018-12-05T00:24:41.198Z,24.20
2018-12-05T00:27:10.004Z,25.53
2018-12-05T00:29:38.835Z,26.77
2018-12-05T00:32:07.646Z,24.27
2018-12-05T00:34:36.435Z,27.50
2018-12-05T00:37:06.240Z,30.80
2018-12-05T00:39:35.048Z,35.20
2018-12-05T00:42:03.924Z,32.20
2018-12-05T00:44:32.754Z,32.47
2018-12-05T00:47:01.560Z,28.97
2018-12-05T00:49:30.963Z,31.00
2018-12-05T00:52:00.831Z,31.90
2018-12-05T00:54:29.744Z,28.47
2018-12-05T00:56:58.552Z,28.40
2018-12-05T00:59:28.095Z,34.10
2018-12-05T01:01:57.167Z,28.07
2018-12-05T01:04:26.092Z,28.37
2018-12-05T01:06:54.928Z,25.87
2018-12-05T01:09:23.739Z,28.70
2018-12-05T01:11:52.579Z,21.90
2018-12-05T01:14:21.388Z,21.93
2018-12-05T01:16:50.195Z,20.33
2018-12-05T01:19:19.069Z,26.07
2018-12-05T01:21:47.888Z,31.20
2018-12-05T01:24:16.744Z,25.37
2018-12-05T01:26:45.843Z,16.50
2018-12-05T01:29:14.632Z,20.63
2018-12-05T01:31:43.963Z,18.47
2018-12-05T01:34:13.737Z,18.77
2018-12-05T01:36:42.619Z,20.63
2018-12-05T01:39:11.423Z,31.33
2018-12-05T01:41:40.636Z,24.20
2018-12-05T01:44:10.064Z,22.57
2018-12-05T01:46:38.937Z,26.67
2018-12-05T01:49:08.475Z,28.97
2018-12-05T01:51:37.309Z,36.33
2018-12-05T01:54:06.728Z,30.13
2018-12-05T01:56:36.040Z,30.20
2018-12-05T01:59:04.867Z,37.80
2018-12-05T02:01:33.752Z,30.13
2018-12-05T02:04:02.586Z,27.67
2018-12-05T02:06:31.437Z,43.73
2018-12-05T02:09:00.255Z,36.00
2018-12-05T02:11:29.176Z,32.73
2018-12-05T02:13:58.010Z,26.77
2018-12-05T02:16:26.867Z,31.27
2018-12-05T02:18:56.305Z,27.17
2018-12-05T02:21:25.730Z,26.30
2018-12-05T02:23:54.547Z,29.47
2018-12-05T02:26:23.375Z,35.03
2018-12-05T02:28:52.223Z,26.10
2018-12-05T02:31:21.356Z,33.03
2018-12-05T02:33:51.215Z,33.27
2018-12-05T02:36:20.028Z,29.93
2018-12-05T02:38:48.830Z,33.33
2018-12-05T02:41:17.631Z,33.90
2018-12-05T02:43:46.505Z,38.83
2018-12-05T02:46:15.316Z,33.73
2018-12-05T02:48:44.170Z,35.80
2018-12-05T02:51:13.061Z,31.87
2018-12-05T02:53:42.643Z,28.90
2018-12-05T02:56:12.097Z,31.13
2018-12-05T02:58:40.947Z,27.93
2018-12-05T03:01:10.396Z,29.67
2018-12-05T03:03:39.249Z,30.67
2018-12-05T03:06:08.072Z,32.50
2018-12-05T03:08:36.879Z,40.20
2018-12-05T03:11:05.706Z,36.73
2018-12-05T03:13:34.517Z,33.40
2018-12-05T03:16:03.333Z,38.93
2018-12-05T03:18:32.936Z,41.93
2018-12-05T03:21:01.762Z,39.43
2018-12-05T03:23:31.140Z,36.37
2018-12-05T03:26:00.092Z,41.07
2018-12-05T03:28:28.832Z,47.00
2018-12-05T03:30:57.656Z,40.43
2018-12-05T03:33:27.172Z,45.37
2018-12-05T03:35:55.990Z,46.17
2018-12-05T03:38:24.799Z,48.57
2018-12-05T03:40:53.666Z,33.60
2018-12-05T03:43:22.467Z,40.67
2018-12-05T03:45:51.342Z,42.70
2018-12-05T03:48:20.151Z,46.30
2018-12-05T03:50:49.021Z,38.80
2018-12-05T03:53:17.847Z,55.23
2018-12-05T03:55:46.669Z,51.23
2018-12-05T03:58:15.493Z,44.33
2018-12-05T04:00:44.279Z,47.47
2018-12-05T04:03:13.425Z,55.77
2018-12-05T04:05:43.561Z,44.47
2018-12-05T04:08:12.432Z,50.33
2018-12-05T04:10:41.230Z,57.70
2018-12-05T04:13:10.662Z,54.17
2018-12-05T04:15:41.074Z,49.87
2018-12-05T04:18:09.895Z,45.33
2018-12-05T04:20:38.756Z,53.37
2018-12-05T04:23:07.646Z,59.93
2018-12-05T04:25:36.738Z,39.47
2018-12-05T04:28:05.612Z,47.73
2018-12-05T04:30:34.403Z,44.30
2018-12-05T04:33:03.938Z,55.17
2018-12-05T04:35:32.764Z,58.23
2018-12-05T04:38:01.597Z,44.90
2018-12-05T04:40:30.696Z,48.70
2018-12-05T04:42:59.587Z,49.87
2018-12-05T04:45:28.506Z,55.50
2018-12-05T04:47:57.349Z,44.73
2018-12-05T04:50:26.180Z,52.40
2018-12-05T04:52:54.996Z,48.77
2018-12-05T04:55:23.789Z,48.93
2018-12-05T04:57:52.657Z,55.17
2018-12-05T05:00:22.569Z,57.87
2018-12-05T05:02:52.476Z,59.23
2018-12-05T05:05:21.268Z,48.73
2018-12-05T05:07:50.085Z,52.00
2018-12-05T05:10:18.968Z,46.17
2018-12-05T05:12:47.819Z,44.73
2018-12-05T05:15:16.625Z,47.60
2018-12-05T05:17:45.415Z,36.10
2018-12-05T05:20:14.251Z,45.27
2018-12-05T05:22:43.183Z,42.57
2018-12-05T05:25:12.019Z,36.87
2018-12-05T05:27:45.910Z,41.67
2018-12-05T05:30:10.191Z,41.63
2018-12-05T05:32:38.994Z,40.73
2018-12-05T05:35:08.130Z,41.73
2018-12-05T05:37:36.942Z,40.60
2018-12-05T05:40:05.827Z,36.97
2018-12-05T05:42:34.705Z,31.33
2018-12-05T05:45:03.612Z,37.97
2018-12-05T05:47:32.475Z,36.90
2018-12-05T05:50:01.301Z,37.97
2018-12-05T05:52:30.168Z,44.47
2018-12-05T05:54:58.994Z,45.17
2018-12-05T05:57:28.101Z,39.33
2018-12-05T05:59:56.909Z,37.17
2018-12-05T06:02:26.384Z,39.60
2018-12-05T06:04:55.203Z,40.83
2018-12-05T06:07:24.033Z,34.20
2018-12-05T06:09:52.925Z,44.40
2018-12-05T06:12:21.748Z,33.60
2018-12-05T06:14:50.580Z,36.63
2018-12-05T06:17:19.411Z,30.30
2018-12-05T06:19:48.210Z,34.70
2018-12-05T06:22:17.050Z,26.43
2018-12-05T06:24:45.927Z,36.73
2018-12-05T06:27:14.725Z,38.23
2018-12-05T06:29:44.467Z,35.00
2018-12-05T06:32:13.304Z,37.47
2018-12-05T06:34:42.173Z,27.20
2018-12-05T06:37:11.159Z,32.73
2018-12-05T06:39:39.961Z,28.63
2018-12-05T06:42:09.087Z,33.97
2018-12-05T06:44:37.992Z,39.23
2018-12-05T06:47:06.864Z,25.47
2018-12-05T06:49:35.817Z,31.17
2018-12-05T06:52:04.655Z,33.77
2018-12-05T06:54:33.567Z,31.47
2018-12-05T06:57:02.413Z,36.70
2018-12-05T06:59:31.230Z,40.70
2018-12-05T07:02:00.926Z,30.77
2018-12-05T07:04:29.934Z,30.53
2018-12-05T07:06:59.745Z,31.70
2018-12-05T07:09:28.617Z,30.00
2018-12-05T07:11:57.414Z,35.37
2018-12-05T07:14:26.320Z,38.70
2018-12-05T07:16:55.116Z,28.57
2018-12-05T07:19:24.402Z,33.03
2018-12-05T07:21:53.292Z,29.23
2018-12-05T07:24:22.157Z,22.13
2018-12-05T07:26:50.971Z,35.77
2018-12-05T07:29:19.775Z,29.10
2018-12-05T07:31:48.614Z,38.60
2018-12-05T07:34:17.467Z,34.40
2018-12-05T07:36:46.291Z,34.37
2018-12-05T07:39:15.113Z,29.33
2018-12-05T07:41:43.987Z,34.50
2018-12-05T07:44:13.324Z,30.60
2018-12-05T07:46:42.151Z,22.00
2018-12-05T07:49:10.967Z,44.17
2018-12-05T07:51:39.958Z,32.40
2018-12-05T07:54:09.051Z,30.10
2018-12-05T07:56:37.842Z,24.20
2018-12-05T07:59:06.648Z,28.07
2018-12-05T08:01:35.463Z,38.93
2018-12-05T08:04:04.302Z,38.07
2018-12-05T08:06:33.789Z,24.60
2018-12-05T08:09:02.652Z,32.30
2018-12-05T08:11:31.526Z,27.70
2018-12-05T08:14:00.399Z,36.43
2018-12-05T08:16:29.250Z,26.43
2018-12-05T08:18:58.055Z,27.57
2018-12-05T08:21:27.072Z,26.40
2018-12-05T08:23:55.875Z,26.53
2018-12-05T08:26:25.733Z,29.60
2018-12-05T08:28:54.844Z,27.03
2018-12-05T08:31:23.992Z,27.07
2018-12-05T08:33:52.829Z,30.73
2018-12-05T08:36:21.685Z,28.07
2018-12-05T08:38:51.838Z,32.77
2018-12-05T08:41:20.949Z,25.63
2018-12-05T08:43:49.793Z,24.43
2018-12-05T08:46:19.660Z,35.00
2018-12-05T08:48:48.593Z,26.17
2018-12-05T08:51:17.414Z,21.43
2018-12-05T08:53:46.271Z,29.80
2018-12-05T08:56:15.072Z,29.33
2018-12-05T08:58:44.108Z,36.47
2018-12-05T09:01:13.554Z,26.43
2018-12-05T09:03:42.397Z,30.73
2018-12-05T09:06:11.201Z,29.20
2018-12-05T09:08:41.388Z,21.23
2018-12-05T09:11:11.028Z,25.93
2018-12-05T09:13:39.920Z,27.07
2018-12-05T09:16:08.711Z,25.03
2018-12-05T09:18:37.838Z,28.90
2018-12-05T09:21:06.785Z,22.73
2018-12-05T09:23:35.647Z,27.27
2018-12-05T09:26:04.536Z,24.10
2018-12-05T09:28:34.025Z,23.13
2018-12-05T09:31:02.839Z,31.07
2018-12-05T09:33:31.629Z,26.73
2018-12-05T09:36:00.416Z,36.57
2018-12-05T09:38:30.468Z,24.90
2018-12-05T09:41:00.640Z,30.50
2018-12-05T09:43:29.403Z,33.67
2018-12-05T09:45:58.239Z,27.67
2018-12-05T09:48:27.312Z,30.73
2018-12-05T09:50:56.120Z,27.13
2018-12-05T09:53:24.899Z,32.47
2018-12-05T09:55:53.766Z,24.57
2018-12-05T09:58:22.649Z,32.20
2018-12-05T10:00:51.521Z,36.47
2018-12-05T10:03:20.400Z,32.23
2018-12-05T10:05:49.208Z,28.40
2018-12-05T10:08:18.014Z,29.13
2018-12-05T10:10:46.804Z,33.10
2018-12-05T10:13:15.592Z,32.67
2018-12-05T10:15:44.445Z,36.23
2018-12-05T10:18:13.309Z,30.83
2018-12-05T10:20:42.618Z,29.53
2018-12-05T10:23:12.272Z,28.90
2018-12-05T10:25:42.081Z,36.27
2018-12-05T10:28:11.314Z,31.97
2018-12-05T10:30:40.201Z,28.20
2018-12-05T10:33:09.056Z,27.33
2018-12-05T10:35:37.927Z,30.30
2018-12-05T10:38:06.827Z,31.57
2018-12-05T10:40:36.526Z,23.00
2018-12-05T10:43:05.428Z,23.07
2018-12-05T10:45:34.319Z,27.53
2018-12-05T10:48:03.431Z,28.07
2018-12-05T10:50:33.284Z,34.93
2018-12-05T10:53:02.120Z,23.87
2018-12-05T10:55:31.568Z,30.13
2018-12-05T10:58:00.408Z,26.57
2018-12-05T11:00:35.211Z,29.30
2018-12-05T11:03:09.411Z,26.03
2018-12-05T11:05:43.739Z,46.90
2018-12-05T11:08:17.965Z,35.23
2018-12-05T11:10:52.250Z,35.13
2018-12-05T11:13:26.492Z,33.93
2018-12-05T11:16:12.728Z,32.73
2018-12-05T11:18:46.958Z,38.90
2018-12-05T11:21:21.739Z,27.70
2018-12-05T11:24:56.600Z,28.67
2018-12-05T11:27:25.797Z,25.87
2018-12-05T11:29:56.800Z,28.27
2018-12-05T11:32:25.606Z,26.07
2018-12-05T11:34:54.492Z,31.57
2018-12-05T11:37:23.327Z,26.47
2018-12-05T11:39:54.531Z,28.13
2018-12-05T11:42:23.287Z,30.43
2018-12-05T11:44:52.312Z,27.67
2018-12-05T11:47:23.047Z,25.73
2018-12-05T11:49:53.120Z,30.20
2018-12-05T11:52:22.186Z,33.93
2018-12-05T11:54:51.024Z,26.53
2018-12-05T11:57:19.863Z,29.03
2018-12-05T11:59:49.540Z,31.60
2018-12-05T12:02:22.262Z,29.13
2018-12-05T12:04:47.823Z,29.17
2018-12-05T12:07:16.672Z,30.87
2018-12-05T12:09:45.472Z,30.37
2018-12-05T12:12:19.753Z,27.57
2018-12-05T12:14:48.662Z,33.43
2018-12-05T12:17:29.184Z,30.13
2018-12-05T12:20:01.458Z,27.10
2018-12-05T12:22:30.891Z,30.90
2018-12-05T12:25:04.600Z,34.17
2018-12-05T12:27:33.399Z,31.07
2018-12-05T12:30:02.753Z,33.70
2018-12-05T12:32:33.126Z,33.77
2018-12-05T12:35:01.955Z,28.07
2018-12-05T12:37:31.643Z,29.03
2018-12-05T12:40:00.464Z,23.67
2018-12-05T12:42:29.288Z,28.13
2018-12-05T12:44:58.092Z,28.50
2018-12-05T12:47:26.930Z,26.53
2018-12-05T12:49:55.817Z,29.00
2018-12-05T12:52:24.680Z,27.07
2018-12-05T12:54:53.573Z,32.17
2018-12-05T12:57:23.143Z,29.43
2018-12-05T12:59:51.955Z,34.03
2018-12-05T13:02:20.760Z,30.23
2018-12-05T13:04:50.630Z,37.43
2018-12-05T13:07:19.479Z,30.73
2018-12-05T13:09:48.262Z,35.70
2018-12-05T13:12:23.484Z,38.30
2018-12-05T13:14:52.591Z,34.20
2018-12-05T13:17:21.376Z,31.57
2018-12-05T13:19:50.266Z,32.87
2018-12-05T13:22:19.079Z,34.50
2018-12-05T13:24:47.914Z,30.17
2018-12-05T13:27:16.754Z,38.87
2018-12-05T13:29:45.579Z,33.17
2018-12-05T13:32:14.383Z,33.93
2018-12-05T13:34:43.273Z,31.80
2018-12-05T13:37:12.097Z,33.27
2018-12-05T13:39:40.977Z,32.13
2018-12-05T13:42:10.160Z,31.23
2018-12-05T13:44:39.039Z,37.23
2018-12-05T13:47:08.664Z,31.43
2018-12-05T13:49:38.371Z,30.23
2018-12-05T13:52:07.941Z,30.60
2018-12-05T13:54:37.783Z,35.37
2018-12-05T13:57:07.342Z,32.30
2018-12-05T13:59:36.714Z,26.60
2018-12-05T14:02:05.748Z,28.13
2018-12-05T14:04:34.597Z,32.33
2018-12-05T14:07:03.804Z,31.90
2018-12-05T14:09:32.595Z,36.50
2018-12-05T14:12:01.480Z,35.63
2018-12-05T14:14:30.283Z,32.73
2018-12-05T14:17:00.275Z,31.37
2018-12-05T14:19:29.162Z,30.17
2018-12-05T14:21:58.247Z,32.83
2018-12-05T14:24:27.093Z,39.17
2018-12-05T14:26:56.118Z,30.57
2018-12-05T14:29:26.685Z,34.57
2018-12-05T14:31:56.443Z,35.70
2018-12-05T14:34:27.181Z,41.90
2018-12-05T14:36:56.020Z,43.93
2018-12-05T14:39:24.855Z,44.00
2018-12-05T14:41:53.673Z,42.13
2018-12-05T14:44:25.605Z,40.43
2018-12-05T14:46:54.495Z,43.03
2018-12-05T14:49:23.338Z,30.93
2018-12-05T14:51:52.769Z,35.93
2018-12-05T14:54:22.138Z,35.37
2018-12-05T14:56:50.929Z,41.47
2018-12-05T14:59:22.516Z,37.60
2018-12-05T15:01:52.159Z,32.63
2018-12-05T15:04:20.968Z,40.43
2018-12-05T15:06:49.800Z,29.83
2018-12-05T15:09:19.396Z,35.53
2018-12-05T15:11:48.851Z,34.40
2018-12-05T15:14:18.051Z,35.50
2018-12-05T15:16:47.792Z,39.57
2018-12-05T15:19:17.292Z,38.13
2018-12-05T15:21:46.911Z,40.33
2018-12-05T15:24:22.069Z,34.90
2018-12-05T15:26:59.082Z,49.37
2018-12-05T15:29:27.926Z,34.30
2018-12-05T15:31:56.742Z,39.07
2018-12-05T15:34:25.724Z,36.00
2018-12-05T15:36:54.580Z,35.03
2018-12-05T15:39:24.362Z,35.00
2018-12-05T15:41:53.420Z,39.17
2018-12-05T15:44:23.999Z,31.63
2018-12-05T15:46:54.454Z,38.50
2018-12-05T15:49:31.882Z,41.40
2018-12-05T15:52:03.586Z,36.37
2018-12-05T15:54:33.451Z,42.00
2018-12-05T15:57:09.661Z,40.23
2018-12-05T15:59:33.471Z,39.03
2018-12-05T16:02:11.384Z,37.80
2018-12-05T16:04:41.703Z,43.50
2018-12-05T16:07:10.603Z,44.90
2018-12-05T16:09:39.536Z,43.33
2018-12-05T16:12:08.330Z,39.80
2018-12-05T16:14:38.446Z,41.93
2018-12-05T16:17:07.876Z,41.13
2018-12-05T16:19:36.740Z,41.80
2018-12-05T16:22:05.615Z,50.63
2018-12-05T16:24:34.452Z,41.13
2018-12-05T16:27:03.296Z,39.93
2018-12-05T16:29:33.123Z,44.47
2018-12-05T16:32:03.504Z,44.57
2018-12-05T16:34:32.329Z,42.27
2018-12-05T16:37:01.192Z,39.83
2018-12-05T16:39:30.096Z,46.90
2018-12-05T16:42:00.551Z,42.93
2018-12-05T16:44:31.693Z,36.57
2018-12-05T16:47:00.592Z,45.50
2018-12-05T16:49:29.487Z,42.37
2018-12-05T16:51:58.287Z,39.67
2018-12-05T16:54:27.105Z,41.77
2018-12-05T16:56:55.938Z,39.47
2018-12-05T16:59:24.740Z,36.77
2018-12-05T17:01:53.531Z,37.23
2018-12-05T17:04:22.389Z,38.70
2018-12-05T17:06:51.239Z,47.03
2018-12-05T17:09:25.973Z,66.27
2018-12-05T17:11:49.181Z,45.90
2018-12-05T17:14:18.180Z,38.17
2018-12-05T17:16:47.479Z,42.13
2018-12-05T17:19:16.300Z,41.67
2018-12-05T17:21:47.197Z,33.27
2018-12-05T17:24:15.996Z,42.83
2018-12-05T17:26:44.905Z,34.13
2018-12-05T17:29:13.741Z,40.40
2018-12-05T17:31:42.645Z,38.43
2018-12-05T17:34:11.471Z,35.23
2018-12-05T17:36:40.311Z,41.50
2018-12-05T17:39:10.257Z,31.90
2018-12-05T17:41:39.065Z,35.03
2018-12-05T17:44:08.803Z,36.27
2018-12-05T17:46:39.231Z,35.57
2018-12-05T17:49:08.092Z,34.50
2018-12-05T17:51:36.946Z,38.60
2018-12-05T17:54:05.772Z,34.20
2018-12-05T17:56:35.146Z,33.37
2018-12-05T17:59:03.485Z,33.37
2018-12-05T18:01:32.328Z,33.10
2018-12-05T18:04:01.155Z,35.80
2018-12-05T18:06:29.946Z,33.33
2018-12-05T18:08:58.759Z,27.93
2018-12-05T18:11:27.599Z,33.43
2018-12-05T18:13:56.742Z,37.63
2018-12-05T18:16:25.655Z,31.80
2018-12-05T18:18:55.139Z,35.43
2018-12-05T18:21:23.936Z,34.57
2018-12-05T18:23:53.395Z,35.87
2018-12-05T18:26:22.164Z,34.13
2018-12-05T18:28:50.973Z,38.10
2018-12-05T18:31:19.881Z,37.43
2018-12-05T18:33:48.798Z,33.90
2018-12-05T18:36:17.699Z,36.07
2018-12-05T18:38:46.515Z,38.57
2018-12-05T18:41:15.326Z,34.93
2018-12-05T18:43:44.234Z,42.63
2018-12-05T18:46:13.061Z,31.27
2018-12-05T18:48:42.101Z,32.80
2018-12-05T18:51:10.926Z,36.10
2018-12-05T18:53:39.836Z,38.13
2018-12-05T18:56:08.744Z,31.83
2018-12-05T18:58:37.572Z,31.23
2018-12-05T19:01:06.467Z,37.70
2018-12-05T19:03:35.355Z,39.93
2018-12-05T19:06:04.191Z,37.00
2018-12-05T19:08:34.394Z,38.97
2018-12-05T19:11:01.800Z,36.43
2018-12-05T19:13:30.631Z,33.50
2018-12-05T19:15:59.468Z,42.20
2018-12-05T19:18:28.302Z,35.63
2018-12-05T19:20:58.765Z,36.77
2018-12-05T19:23:27.644Z,35.07
2018-12-05T19:25:56.466Z,36.23
2018-12-05T19:28:25.263Z,34.70
2018-12-05T19:30:54.100Z,34.30
2018-12-05T19:33:23.180Z,29.80
2018-12-05T19:35:52.058Z,33.57
2018-12-05T19:38:20.919Z,35.63
2018-12-05T19:40:49.783Z,39.57
2018-12-05T19:43:18.754Z,46.83
2018-12-05T19:45:47.600Z,35.07
2018-12-05T19:48:20.191Z,32.70
2018-12-05T19:50:51.219Z,32.80
2018-12-05T19:53:20.079Z,38.23
2018-12-05T19:55:48.939Z,33.27
2018-12-05T19:58:17.759Z,30.63
2018-12-05T20:00:46.548Z,28.00
2018-12-05T20:03:15.359Z,29.70
2018-12-05T20:05:44.517Z,32.53
2018-12-05T20:08:13.344Z,29.00
2018-12-05T20:10:42.203Z,30.10
2018-12-05T20:13:11.411Z,30.90
2018-12-05T20:15:40.223Z,29.83
2018-12-05T20:18:09.321Z,26.70
2018-12-05T20:20:38.215Z,30.93
2018-12-05T20:23:08.634Z,30.57
2018-12-05T20:25:37.418Z,32.30
2018-12-05T20:28:06.372Z,25.83
2018-12-05T20:30:35.248Z,28.73
2018-12-05T20:33:04.936Z,25.87
2018-12-05T20:35:35.140Z,37.70
2018-12-05T20:38:04.897Z,31.23
2018-12-05T20:40:35.371Z,25.93
2018-12-05T20:43:04.189Z,29.23
2018-12-05T20:45:33.038Z,26.03
2018-12-05T20:48:02.541Z,23.07
2018-12-05T20:50:31.887Z,31.47
2018-12-05T20:53:01.346Z,30.10
2018-12-05T20:55:30.233Z,30.10
2018-12-05T20:57:59.975Z,33.40
2018-12-05T21:00:28.803Z,30.10
2018-12-05T21:02:57.659Z,26.70
2018-12-05T21:05:27.272Z,26.90
2018-12-05T21:07:56.103Z,25.97
2018-12-05T21:10:24.916Z,22.13
2018-12-05T21:12:53.742Z,25.03
2018-12-05T21:15:24.639Z,29.03
2018-12-05T21:17:53.470Z,24.27
2018-12-05T21:20:26.461Z,22.70
2018-12-05T21:22:55.312Z,24.30
2018-12-05T21:25:24.337Z,28.93
2018-12-05T21:27:53.216Z,26.90
2018-12-05T21:30:22.091Z,26.90
2018-12-05T21:32:50.942Z,27.20
2018-12-05T21:35:19.770Z,31.47
2018-12-05T21:37:48.593Z,23.73
2018-12-05T21:40:18.600Z,30.83
2018-12-05T21:42:47.488Z,31.27
2018-12-05T21:45:16.347Z,30.50
2018-12-05T21:47:45.207Z,29.47
2018-12-05T21:50:14.048Z,30.50
2018-12-05T21:52:42.956Z,31.20
2018-12-05T21:55:11.910Z,36.30
2018-12-05T21:57:40.743Z,26.93
2018-12-05T22:00:11.788Z,23.37
2018-12-05T22:02:40.631Z,29.70
2018-12-05T22:05:09.499Z,29.30
2018-12-05T22:07:38.370Z,27.33
2018-12-05T22:10:08.808Z,28.77
2018-12-05T22:12:37.589Z,22.87
2018-12-05T22:15:06.662Z,25.70
2018-12-05T22:17:35.552Z,25.23
2018-12-05T22:20:05.231Z,28.03
2018-12-05T22:22:34.072Z,24.30
2018-12-05T22:25:02.947Z,25.70
2018-12-05T22:27:31.834Z,31.73
2018-12-05T22:30:00.672Z,27.23
2018-12-05T22:32:29.469Z,27.63
2018-12-05T22:34:58.275Z,25.80
2018-12-05T22:37:27.154Z,25.67
2018-12-05T22:39:55.974Z,29.53
2018-12-05T22:42:26.016Z,24.67
2018-12-05T22:44:54.884Z,23.03
2018-12-05T22:47:23.690Z,29.00
2018-12-05T22:49:52.507Z,25.60
2018-12-05T22:52:21.912Z,24.90
2018-12-05T22:54:50.751Z,25.90
2018-12-05T22:57:19.640Z,28.67
2018-12-05T22:59:48.450Z,24.83
2018-12-05T23:02:17.283Z,24.90
2018-12-05T23:04:46.157Z,30.77
2018-12-05T23:07:15.606Z,28.80
2018-12-05T23:09:44.527Z,30.17
2018-12-05T23:12:14.138Z,28.13
2018-12-05T23:14:44.228Z,26.27
2018-12-05T23:17:14.811Z,29.47
2018-12-05T23:19:44.321Z,23.87
2018-12-05T23:22:13.113Z,26.43
2018-12-05T23:24:41.999Z,28.70
2018-12-05T23:27:11.181Z,26.40
2018-12-05T23:29:39.991Z,23.30
2018-12-05T23:32:08.852Z,23.43
2018-12-05T23:34:37.668Z,35.57
2018-12-05T23:37:06.555Z,24.50
2018-12-05T23:39:35.387Z,37.60
2018-12-05T23:42:04.513Z,31.17
2018-12-05T23:44:33.328Z,20.20
2018-12-05T23:47:02.956Z,24.20
2018-12-05T23:49:31.766Z,23.37
2018-12-05T23:52:00.584Z,23.77
2018-12-05T23:54:29.447Z,28.00
2018-12-05T23:56:58.246Z,24.90
2018-12-05T23:59:27.063Z,27.33
